Time;durP1;ratioP1;P1;durP2;ratioP2;P2;SDS_P1;SDS_P2;PMS_P1;PMS_P2;Temp;Humidity;BMP_temperature;BMP_pressure;BME280_temperature;BME280_humidity;BME280_pressure;Samples;Min_cycle;Max_cycle;Signal;HPM_P1;HPM_P2
2022/10/01 00:00:51;;;;;;;3.03;1.67;;;;;;;14.57;95.25;100192.41;5055641;28;20060;-75
2022/10/01 00:03:19;;;;;;;7.57;2.97;;;;;;;14.54;95.04;100184.13;5050161;28;20052;-78
2022/10/01 00:05:46;;;;;;;4.80;2.28;;;;;;;14.55;95.22;100202.41;5057055;28;20114;-76
2022/10/01 00:08:13;;;;;;;7.90;3.53;;;;;;;14.61;94.93;100181.16;5046897;28;20551;-76
2022/10/01 00:10:41;;;;;;;9.30;4.10;;;;;;;14.70;94.45;100178.53;5052809;28;20130;-76
2022/10/01 00:13:09;;;;;;;7.18;3.17;;;;;;;14.60;94.88;100169.25;5056581;28;20052;-75
2022/10/01 00:15:39;;;;;;;3.78;1.92;;;;;;;14.55;94.95;100180.13;5053249;28;20056;-76
2022/10/01 00:18:08;;;;;;;8.23;3.80;;;;;;;14.61;94.99;100170.81;5062843;28;20065;-76
2022/10/01 00:20:42;;;;;;;5.07;2.72;;;;;;;14.66;94.79;100172.28;5060215;28;20169;-76
2022/10/01 00:23:13;;;;;;;4.20;1.77;;;;;;;14.63;95.84;100168.38;5053558;28;20044;-77
2022/10/01 00:25:40;;;;;;;14.05;2.65;;;;;;;14.58;95.52;100174.47;5047201;28;20045;-75
2022/10/01 00:28:06;;;;;;;7.80;2.97;;;;;;;14.70;95.96;100164.63;5059774;28;20036;-76
2022/10/01 00:30:33;;;;;;;8.98;3.58;;;;;;;14.48;99.07;100180.31;5053307;28;20506;-77
2022/10/01 00:33:05;;;;;;;9.77;4.50;;;;;;;14.37;100.00;100165.88;5053515;28;20995;-76
2022/10/01 00:35:32;;;;;;;5.03;2.80;;;;;;;14.44;100.00;100169.25;5050570;28;20055;-75
2022/10/01 00:37:58;;;;;;;3.10;1.33;;;;;;;14.39;100.00;100167.03;5055344;28;20036;-73
2022/10/01 00:40:25;;;;;;;9.45;3.65;;;;;;;14.19;100.00;100154.38;5063449;28;20047;-77
2022/10/01 00:42:51;;;;;;;5.82;2.42;;;;;;;14.20;100.00;100147.59;5048330;28;20060;-76
2022/10/01 00:45:18;;;;;;;8.05;2.83;;;;;;;13.94;100.00;100148.63;5050015;28;20048;-74
2022/10/01 00:47:53;;;;;;;5.78;3.05;;;;;;;13.82;100.00;100138.19;5046988;28;20055;-74
2022/10/01 00:50:31;;;;;;;8.88;3.58;;;;;;;13.55;100.00;100138.41;5059339;28;20809;-75
2022/10/01 00:53:01;;;;;;;5.30;2.30;;;;;;;13.58;100.00;100125.63;5040682;28;20052;-77
2022/10/01 00:55:35;;;;;;;7.00;3.53;;;;;;;13.30;100.00;100132.63;5045284;28;20056;-75
2022/10/01 00:58:03;;;;;;;7.55;3.60;;;;;;;13.37;100.00;100109.44;5046221;28;20806;-75
2022/10/01 01:00:30;;;;;;;12.13;4.63;;;;;;;13.31;100.00;100097.28;5048072;28;20575;-75
2022/10/01 01:02:57;;;;;;;7.10;2.80;;;;;;;13.05;100.00;100096.25;5047394;28;20056;-75
2022/10/01 01:05:24;;;;;;;8.38;3.83;;;;;;;13.12;100.00;100079.41;5046685;28;20052;-75
2022/10/01 01:07:52;;;;;;;8.07;3.17;;;;;;;13.06;100.00;100074.81;5045191;28;20109;-78
2022/10/01 01:10:32;;;;;;;9.05;4.20;;;;;;;13.01;100.00;100081.66;5048591;28;20056;-75
2022/10/01 01:13:18;;;;;;;9.88;4.50;;;;;;;12.92;100.00;100086.94;5045358;28;20063;-76
2022/10/01 01:16:02;;;;;;;5.95;2.67;;;;;;;12.84;100.00;100083.56;5049163;28;20766;-78
2022/10/01 01:18:36;;;;;;;7.10;3.33;;;;;;;12.79;100.00;100078.50;5041465;28;20598;-74
2022/10/01 01:21:12;;;;;;;11.45;4.97;;;;;;;12.74;100.00;100081.78;5049607;28;20927;-73
2022/10/01 01:23:57;;;;;;;7.68;3.35;;;;;;;12.64;100.00;100076.44;5046239;28;20041;-75
2022/10/01 01:26:28;;;;;;;10.02;5.28;;;;;;;12.55;100.00;100087.28;5050474;28;20066;-75
2022/10/01 01:29:12;;;;;;;11.63;5.10;;;;;;;12.52;100.00;100072.28;5048860;28;20055;-75
2022/10/01 01:31:45;;;;;;;14.48;7.13;;;;;;;12.56;100.00;100052.81;5048569;28;20874;-76
2022/10/01 01:34:21;;;;;;;9.23;4.38;;;;;;;12.40;100.00;100052.72;5050690;28;20052;-76
2022/10/01 01:36:57;;;;;;;15.68;6.70;;;;;;;12.57;100.00;100038.50;5052539;28;20055;-77
2022/10/01 01:39:28;;;;;;;11.65;5.50;;;;;;;12.48;100.00;100029.97;5048272;28;20053;-76
2022/10/01 01:42:02;;;;;;;13.20;6.63;;;;;;;12.46;100.00;100028.81;5055057;28;20043;-77
2022/10/01 01:44:34;;;;;;;12.90;5.38;;;;;;;12.41;100.00;100019.00;5052458;28;20052;-76
2022/10/01 01:47:04;;;;;;;8.70;3.42;;;;;;;12.40;100.00;100019.44;5049473;28;20040;-74
2022/10/01 01:49:32;;;;;;;10.05;4.43;;;;;;;12.37;100.00;100012.75;5052822;28;20056;-75
2022/10/01 01:52:14;;;;;;;9.88;4.35;;;;;;;12.37;100.00;100006.41;5052914;28;20074;-74
2022/10/01 01:54:43;;;;;;;12.30;5.93;;;;;;;12.31;100.00;100008.09;5053285;28;20040;-74
2022/10/01 01:57:13;;;;;;;12.30;5.78;;;;;;;12.31;100.00;100008.88;5056809;28;20794;-75
2022/10/01 01:59:41;;;;;;;7.13;2.88;;;;;;;12.24;100.00;99997.16;5054028;28;20410;-75
2022/10/01 02:02:13;;;;;;;11.00;4.82;;;;;;;12.29;100.00;99993.88;5059368;28;20485;-74
2022/10/01 02:04:42;;;;;;;12.48;6.35;;;;;;;12.27;100.00;99997.09;5076882;28;20045;-74
2022/10/01 02:07:18;;;;;;;9.85;4.22;;;;;;;12.22;100.00;100000.34;5075486;28;20044;-74
2022/10/01 02:10:12;;;;;;;8.93;3.70;;;;;;;12.13;100.00;99991.81;5066828;28;20048;-75
2022/10/01 02:12:48;;;;;;;5.20;3.35;;;;;;;12.14;100.00;99982.28;5062976;28;20110;-74
2022/10/01 02:15:35;;;;;;;13.68;6.65;;;;;;;12.26;100.00;99980.88;5053805;28;20061;-76
2022/10/01 02:18:11;;;;;;;6.78;3.40;;;;;;;12.14;100.00;99970.41;5071775;28;20050;-74
2022/10/01 02:20:59;;;;;;;11.00;5.20;;;;;;;12.16;100.00;99979.09;5069670;28;20049;-74
2022/10/01 02:23:29;;;;;;;5.05;2.67;;;;;;;12.18;100.00;99982.19;5065868;28;20057;-74
2022/10/01 02:26:01;;;;;;;14.98;5.47;;;;;;;12.16;100.00;99973.53;5069422;28;20044;-75
2022/10/01 02:28:32;;;;;;;12.98;5.43;;;;;;;12.13;100.00;99977.94;5066427;28;20505;-75
2022/10/01 02:31:00;;;;;;;7.03;2.80;;;;;;;12.08;100.00;99997.84;5056896;28;20189;-73
2022/10/01 02:33:34;;;;;;;5.38;2.47;;;;;;;12.00;100.00;99988.09;5058693;28;20656;-74
2022/10/01 02:36:04;;;;;;;12.48;6.20;;;;;;;12.07;100.00;99989.94;5066579;28;20047;-74
2022/10/01 02:38:35;;;;;;;11.57;6.07;;;;;;;12.08;100.00;99980.44;5075035;28;20037;-75
2022/10/01 02:41:04;;;;;;;13.73;6.25;;;;;;;12.04;100.00;99966.63;5071761;28;20036;-73
2022/10/01 02:43:38;;;;;;;11.73;4.75;;;;;;;12.03;100.00;99976.16;5061725;28;20500;-72
2022/10/01 02:46:35;;;;;;;9.50;4.38;;;;;;;12.06;100.00;99969.78;5067110;28;20047;-73
2022/10/01 02:49:03;;;;;;;8.18;3.58;;;;;;;11.96;100.00;99972.72;5056042;28;20366;-73
2022/10/01 02:51:58;;;;;;;13.32;5.50;;;;;;;12.01;100.00;99955.59;5062174;28;20094;-74
2022/10/01 02:54:36;;;;;;;9.10;2.85;;;;;;;11.93;100.00;99948.63;5065552;28;20097;-76
2022/10/01 02:59:58;;;;;;;6.78;3.08;;;;;;;11.94;100.00;99937.09;5060811;28;20040;-74
2022/10/01 03:02:30;;;;;;;6.28;3.45;;;;;;;11.95;100.00;99935.13;5075177;28;20140;-74
2022/10/01 03:04:57;;;;;;;14.02;6.25;;;;;;;12.04;100.00;99927.00;5048964;28;20049;-75
2022/10/01 03:07:28;;;;;;;10.27;4.13;;;;;;;12.02;100.00;99918.34;5067623;28;20045;-73
2022/10/01 03:09:56;;;;;;;7.38;3.40;;;;;;;11.92;100.00;99908.25;5054152;28;20055;-76
2022/10/01 03:12:22;;;;;;;6.45;3.70;;;;;;;11.94;100.00;99886.41;5059175;28;20053;-74
2022/10/01 03:14:49;;;;;;;12.50;4.85;;;;;;;11.90;100.00;99894.81;5064376;28;20047;-73
2022/10/01 03:17:16;;;;;;;9.88;3.22;;;;;;;11.87;100.00;99890.13;5067117;28;20045;-74
2022/10/01 03:19:42;;;;;;;12.13;4.97;;;;;;;11.89;100.00;99878.63;5065481;28;20058;-74
2022/10/01 03:22:13;;;;;;;8.23;3.65;;;;;;;11.91;100.00;99885.28;5053609;28;20101;-74
2022/10/01 03:24:40;;;;;;;6.95;2.97;;;;;;;11.90;100.00;99889.28;5059849;28;20052;-74
2022/10/01 03:27:06;;;;;;;6.00;3.20;;;;;;;11.90;100.00;99871.84;5072316;28;20044;-73
2022/10/01 03:29:33;;;;;;;11.40;4.82;;;;;;;11.87;100.00;99878.25;5081746;28;20048;-73
2022/10/01 03:31:59;;;;;;;12.38;4.85;;;;;;;11.97;100.00;99860.63;5063304;28;20053;-74
2022/10/01 03:34:26;;;;;;;8.10;3.60;;;;;;;11.84;100.00;99860.47;5057764;28;20400;-73
2022/10/01 03:36:53;;;;;;;5.45;2.60;;;;;;;11.79;100.00;99849.13;5067849;28;20048;-72
2022/10/01 03:39:19;;;;;;;5.57;2.90;;;;;;;11.77;100.00;99829.34;5064908;28;20420;-73
2022/10/01 03:41:46;;;;;;;10.50;4.90;;;;;;;11.82;100.00;99826.09;5067349;28;20757;-77
2022/10/01 03:44:12;;;;;;;8.50;3.33;;;;;;;11.78;100.00;99825.38;5085555;28;20047;-73
2022/10/01 03:46:39;;;;;;;10.68;5.15;;;;;;;11.69;100.00;99805.78;5060390;28;20105;-73
2022/10/01 03:49:05;;;;;;;11.02;4.80;;;;;;;11.79;100.00;99783.41;5082166;28;20381;-74
2022/10/01 03:51:32;;;;;;;5.57;2.72;;;;;;;11.73;100.00;99784.31;5061201;28;20786;-74
2022/10/01 03:53:59;;;;;;;8.80;3.92;;;;;;;11.69;100.00;99762.22;5051561;28;20037;-73
2022/10/01 03:56:25;;;;;;;9.02;3.58;;;;;;;11.69;100.00;99789.16;5075258;28;20401;-74
2022/10/01 03:58:52;;;;;;;7.82;3.40;;;;;;;11.67;100.00;99783.25;5074969;28;20730;-73
2022/10/01 04:01:18;;;;;;;5.60;3.15;;;;;;;11.72;100.00;99799.38;5067314;28;20044;-74
2022/10/01 04:03:45;;;;;;;7.07;3.08;;;;;;;11.70;100.00;99807.31;5058293;28;20057;-75
2022/10/01 04:06:12;;;;;;;8.25;3.22;;;;;;;11.68;100.00;99798.69;5051342;28;20056;-75
2022/10/01 04:08:39;;;;;;;9.60;3.67;;;;;;;11.64;100.00;99765.47;5066536;28;20051;-74
2022/10/01 04:11:06;;;;;;;5.70;3.03;;;;;;;11.68;100.00;99782.06;5050518;28;20051;-76
2022/10/01 04:13:33;;;;;;;9.35;4.45;;;;;;;11.81;100.00;99785.75;5056201;28;20048;-75
2022/10/01 04:16:04;;;;;;;6.32;3.15;;;;;;;11.63;100.00;99808.25;5058629;28;20043;-73
2022/10/01 04:18:31;;;;;;;5.03;2.20;;;;;;;11.77;100.00;99793.31;5059293;28;20048;-74
2022/10/01 04:20:58;;;;;;;4.68;2.17;;;;;;;11.80;100.00;99795.25;5058644;28;20812;-74
2022/10/01 04:23:25;;;;;;;4.38;2.20;;;;;;;11.86;100.00;99805.41;5065501;28;20451;-74
2022/10/01 04:25:51;;;;;;;3.58;1.83;;;;;;;11.84;100.00;99810.59;5060253;28;20053;-74
2022/10/01 04:28:18;;;;;;;6.75;3.00;;;;;;;11.87;100.00;99795.09;5064169;28;20478;-75
2022/10/01 04:30:45;;;;;;;9.75;3.55;;;;;;;11.88;100.00;99793.91;5064662;28;20080;-76
2022/10/01 04:33:14;;;;;;;3.20;1.85;;;;;;;11.91;100.00;99798.59;5051296;28;20670;-74
2022/10/01 04:35:44;;;;;;;5.50;2.55;;;;;;;11.92;100.00;99778.75;5067325;28;20052;-75
2022/10/01 04:38:15;;;;;;;4.13;2.15;;;;;;;11.92;100.00;99800.91;5059812;28;20043;-74
2022/10/01 04:40:42;;;;;;;7.95;2.03;;;;;;;11.95;100.00;99785.44;5069723;28;20041;-74
2022/10/01 04:43:10;;;;;;;4.22;2.35;;;;;;;11.98;100.00;99793.66;5063163;28;20051;-74
2022/10/01 04:45:37;;;;;;;4.53;2.20;;;;;;;12.03;100.00;99790.41;5055126;28;20044;-75
2022/10/01 04:48:04;;;;;;;4.15;2.28;;;;;;;12.14;100.00;99787.38;5066551;28;20044;-75
2022/10/01 04:50:31;;;;;;;3.63;1.98;;;;;;;12.06;100.00;99772.91;5061181;28;20721;-75
2022/10/01 04:52:58;;;;;;;5.57;2.85;;;;;;;12.23;100.00;99779.25;5063235;28;20045;-74
2022/10/01 04:55:25;;;;;;;2.83;1.30;;;;;;;12.19;100.00;99784.13;5063724;28;20060;-76
2022/10/01 04:57:51;;;;;;;2.40;1.48;;;;;;;12.18;100.00;99794.41;5067627;28;20729;-74
2022/10/01 05:00:23;;;;;;;6.53;3.15;;;;;;;12.23;100.00;99779.25;5061021;28;20052;-74
2022/10/01 05:02:50;;;;;;;4.10;2.10;;;;;;;12.18;100.00;99782.53;5061147;28;20049;-75
2022/10/01 05:05:18;;;;;;;5.68;2.40;;;;;;;12.11;100.00;99791.81;5049451;28;20052;-72
2022/10/01 05:07:46;;;;;;;4.45;2.20;;;;;;;12.18;100.00;99779.75;5073084;28;20051;-76
2022/10/01 05:10:16;;;;;;;2.88;1.42;;;;;;;12.23;100.00;99784.81;5070523;28;20053;-74
2022/10/01 05:12:43;;;;;;;3.25;2.08;;;;;;;12.15;100.00;99788.97;5065152;28;20041;-73
2022/10/01 05:15:10;;;;;;;3.00;1.65;;;;;;;12.22;100.00;99781.25;5075703;28;20465;-75
2022/10/01 05:17:36;;;;;;;7.25;2.63;;;;;;;12.25;100.00;99783.16;5060648;28;20055;-74
2022/10/01 05:20:05;;;;;;;1.52;1.00;;;;;;;12.26;100.00;99792.28;5069563;28;20037;-75
2022/10/01 05:22:32;;;;;;;3.63;1.75;;;;;;;12.21;100.00;99796.34;5073773;28;20056;-74
2022/10/01 05:24:59;;;;;;;2.78;1.75;;;;;;;12.32;100.00;99796.09;5076795;28;20048;-72
2022/10/01 05:27:35;;;;;;;2.70;1.52;;;;;;;12.30;100.00;99796.53;5067404;28;20048;-74
2022/10/01 05:30:02;;;;;;;6.38;2.83;;;;;;;12.33;100.00;99798.44;5068084;28;20052;-71
2022/10/01 05:32:30;;;;;;;4.22;1.70;;;;;;;12.28;100.00;99803.69;5071217;28;20048;-73
2022/10/01 05:34:56;;;;;;;2.55;1.30;;;;;;;12.32;100.00;99812.75;5071602;28;20055;-74
2022/10/01 05:37:23;;;;;;;3.00;1.48;;;;;;;12.32;100.00;99816.28;5079161;28;20493;-74
2022/10/01 05:39:49;;;;;;;3.58;1.80;;;;;;;12.36;100.00;99811.44;5070894;28;20428;-74
2022/10/01 05:42:16;;;;;;;1.38;1.27;;;;;;;12.30;100.00;99824.28;5069115;28;20520;-74
2022/10/01 05:44:45;;;;;;;5.38;1.73;;;;;;;12.37;100.00;99832.44;5071326;28;20501;-73
2022/10/01 05:47:12;;;;;;;2.78;1.58;;;;;;;12.37;100.00;99846.31;5074353;28;20496;-73
2022/10/01 05:49:42;;;;;;;4.88;2.40;;;;;;;12.39;100.00;99830.00;5074245;28;20075;-73
2022/10/01 05:52:10;;;;;;;0.80;0.63;;;;;;;12.32;100.00;99848.81;5067973;28;20052;-75
2022/10/01 05:54:36;;;;;;;6.38;2.03;;;;;;;12.40;100.00;99844.66;5076652;28;20059;-73
2022/10/01 05:57:04;;;;;;;4.38;1.83;;;;;;;12.37;100.00;99851.84;5069840;28;20110;-73
2022/10/01 05:59:30;;;;;;;2.28;1.50;;;;;;;12.38;100.00;99856.19;5073344;28;20048;-74
2022/10/01 06:01:57;;;;;;;6.30;1.95;;;;;;;12.40;100.00;99851.00;5067503;28;20055;-75
2022/10/01 06:04:24;;;;;;;1.65;1.08;;;;;;;12.38;100.00;99847.84;5070148;28;20044;-74
2022/10/01 06:06:52;;;;;;;2.17;1.45;;;;;;;12.38;100.00;99847.06;5075322;28;20052;-75
2022/10/01 06:09:18;;;;;;;2.88;1.75;;;;;;;12.44;100.00;99846.13;5082779;28;20055;-74
2022/10/01 06:11:48;;;;;;;5.10;2.35;;;;;;;12.53;100.00;99853.88;5059185;28;20107;-75
2022/10/01 06:14:15;;;;;;;4.57;2.10;;;;;;;12.48;100.00;99848.81;5056555;28;20059;-76
2022/10/01 06:16:41;;;;;;;1.50;0.90;;;;;;;12.46;100.00;99854.03;5058706;28;20110;-70
2022/10/01 06:19:08;;;;;;;1.17;0.82;;;;;;;12.52;100.00;99857.88;5065317;28;20049;-72
2022/10/01 06:21:35;;;;;;;3.22;1.85;;;;;;;12.58;100.00;99859.69;5065268;28;20151;-71
2022/10/01 06:24:02;;;;;;;4.72;1.20;;;;;;;12.48;100.00;99859.91;5066136;28;20642;-71
2022/10/01 06:26:28;;;;;;;2.05;1.17;;;;;;;12.59;100.00;99857.72;5067302;28;20055;-72
2022/10/01 06:28:55;;;;;;;3.83;1.73;;;;;;;12.64;100.00;99851.63;5067125;28;20583;-73
2022/10/01 06:31:23;;;;;;;6.35;2.80;;;;;;;12.69;100.00;99846.34;5071036;28;20063;-72
2022/10/01 06:33:49;;;;;;;5.03;1.90;;;;;;;12.71;100.00;99845.91;5068001;28;20067;-73
2022/10/01 06:36:16;;;;;;;2.05;1.10;;;;;;;12.68;100.00;99866.19;5074356;28;20059;-70
2022/10/01 06:38:42;;;;;;;5.57;2.08;;;;;;;12.73;100.00;99857.38;5068658;28;20489;-71
2022/10/01 06:41:09;;;;;;;2.97;1.08;;;;;;;12.77;100.00;99853.31;5063389;28;20657;-71
2022/10/01 06:43:35;;;;;;;7.47;2.60;;;;;;;12.83;100.00;99859.88;5068763;28;20048;-70
2022/10/01 06:46:04;;;;;;;2.13;1.23;;;;;;;12.79;100.00;99867.53;5066789;28;20055;-72
2022/10/01 06:48:31;;;;;;;2.05;1.02;;;;;;;12.80;100.00;99871.09;5068493;28;20940;-73
2022/10/01 06:50:58;;;;;;;1.27;0.85;;;;;;;12.80;100.00;99873.88;5064704;28;20056;-72
2022/10/01 06:53:27;;;;;;;2.35;1.20;;;;;;;12.90;100.00;99867.28;5068162;28;20059;-72
2022/10/01 06:55:54;;;;;;;0.60;0.60;;;;;;;12.84;100.00;99866.22;5068903;28;20063;-72
2022/10/01 06:58:23;;;;;;;1.70;0.68;;;;;;;12.86;100.00;99858.25;5067499;28;20049;-72
2022/10/01 07:00:49;;;;;;;3.60;1.52;;;;;;;12.78;100.00;99860.41;5066576;28;20052;-71
2022/10/01 07:03:19;;;;;;;1.38;0.82;;;;;;;12.89;100.00;99862.91;5065723;28;20040;-71
2022/10/01 07:05:46;;;;;;;1.48;1.05;;;;;;;12.88;100.00;99869.69;5062520;28;20092;-70
2022/10/01 07:08:12;;;;;;;2.10;1.35;;;;;;;12.88;100.00;99875.25;5067909;28;20048;-73
2022/10/01 07:10:40;;;;;;;1.08;0.88;;;;;;;12.94;100.00;99867.97;5067436;28;20059;-72
2022/10/01 07:13:11;;;;;;;1.25;0.82;;;;;;;12.93;100.00;99872.72;5066921;28;20063;-72
2022/10/01 07:15:38;;;;;;;6.25;2.40;;;;;;;12.97;100.00;99867.09;5060375;28;20102;-71
2022/10/01 07:18:08;;;;;;;1.05;0.93;;;;;;;12.97;100.00;99878.22;5064510;28;20131;-71
2022/10/01 07:20:38;;;;;;;3.00;1.10;;;;;;;13.01;100.00;99876.16;5062854;28;20659;-73
2022/10/01 07:23:06;;;;;;;2.95;1.30;;;;;;;12.99;100.00;99884.91;5063417;28;20059;-70
2022/10/01 07:25:33;;;;;;;2.65;1.40;;;;;;;13.07;100.00;99884.75;5065737;28;20421;-71
2022/10/01 07:28:03;;;;;;;2.92;1.30;;;;;;;13.00;100.00;99891.25;5080399;28;20052;-70
2022/10/01 07:30:31;;;;;;;3.13;1.52;;;;;;;13.10;100.00;99887.44;5085050;28;20076;-71
2022/10/01 07:32:58;;;;;;;0.75;0.75;;;;;;;13.00;100.00;99882.94;5070475;28;20520;-70
2022/10/01 07:35:24;;;;;;;5.80;2.70;;;;;;;13.21;100.00;99896.28;5073900;28;20047;-71
2022/10/01 07:37:54;;;;;;;5.28;1.98;;;;;;;13.16;100.00;99902.34;5075341;28;20052;-73
2022/10/01 07:40:20;;;;;;;2.75;1.20;;;;;;;13.16;100.00;99898.81;5066629;28;20139;-71
2022/10/01 07:42:54;;;;;;;5.43;1.42;;;;;;;13.15;100.00;99911.91;5064303;28;20044;-71
2022/10/01 07:45:22;;;;;;;0.95;0.70;;;;;;;13.20;100.00;99910.63;5069000;28;20061;-72
2022/10/01 07:47:58;;;;;;;1.52;1.15;;;;;;;13.16;100.00;99907.91;5069320;28;20045;-70
2022/10/01 07:50:26;;;;;;;4.40;0.77;;;;;;;13.16;100.00;99907.16;5081598;28;20055;-73
2022/10/01 07:52:55;;;;;;;3.40;1.60;;;;;;;13.16;100.00;99913.47;5068711;28;20052;-69
2022/10/01 07:55:25;;;;;;;2.63;1.10;;;;;;;13.25;100.00;99919.22;5062943;28;20508;-69
2022/10/01 07:57:57;;;;;;;3.60;1.55;;;;;;;13.30;100.00;99918.69;5062560;28;20102;-70
2022/10/01 08:00:25;;;;;;;2.10;1.20;;;;;;;13.37;100.00;99918.53;5063385;28;20053;-72
2022/10/01 08:02:54;;;;;;;3.13;1.80;;;;;;;13.43;100.00;99907.66;5071923;28;20048;-74
2022/10/01 08:05:27;;;;;;;9.27;3.22;;;;;;;13.58;100.00;99914.41;5076417;28;20134;-73
2022/10/01 08:08:06;;;;;;;6.20;3.15;;;;;;;13.58;100.00;99917.97;5071239;28;20051;-73
2022/10/01 08:10:35;;;;;;;5.70;2.47;;;;;;;13.57;100.00;99912.84;5063445;28;20060;-73
2022/10/01 08:13:13;;;;;;;2.90;1.58;;;;;;;13.64;100.00;99912.66;5059287;28;20562;-72
2022/10/01 08:15:45;;;;;;;3.60;1.45;;;;;;;13.72;100.00;99912.03;5062347;28;20135;-72
2022/10/01 08:18:12;;;;;;;5.35;2.35;;;;;;;13.79;100.00;99909.06;5058988;28;20425;-71
2022/10/01 08:20:39;;;;;;;5.35;2.55;;;;;;;13.94;100.00;99923.38;5061915;28;20052;-71
2022/10/01 08:23:09;;;;;;;4.43;1.77;;;;;;;13.91;100.00;99919.44;5069109;28;20053;-71
2022/10/01 08:25:36;;;;;;;2.30;1.38;;;;;;;13.99;100.00;99914.47;5063360;28;20075;-72
2022/10/01 08:28:03;;;;;;;8.45;3.50;;;;;;;14.07;100.00;99932.56;5066949;28;20493;-72
2022/10/01 08:30:30;;;;;;;7.78;3.35;;;;;;;14.15;100.00;99934.69;5066375;28;20051;-75
2022/10/01 08:32:58;;;;;;;6.28;2.53;;;;;;;14.13;100.00;99942.69;5066820;28;20052;-70
2022/10/01 08:35:26;;;;;;;5.60;2.90;;;;;;;14.17;100.00;99943.38;5064837;28;20497;-69
2022/10/01 08:37:54;;;;;;;13.88;5.05;;;;;;;14.26;100.00;99932.41;5062644;28;20052;-72
2022/10/01 08:40:22;;;;;;;2.38;1.30;;;;;;;14.23;100.00;99954.75;5066214;28;20060;-71
2022/10/01 08:43:00;;;;;;;12.98;4.82;;;;;;;14.36;100.00;99950.81;5066818;28;20056;-72
2022/10/01 08:45:40;;;;;;;12.73;4.65;;;;;;;14.45;100.00;99956.50;5067003;28;20580;-73
2022/10/01 08:48:22;;;;;;;5.53;2.70;;;;;;;14.39;100.00;99969.41;5068839;28;20056;-73
2022/10/01 08:50:56;;;;;;;4.60;2.38;;;;;;;14.37;100.00;99976.63;5069790;28;20051;-72
2022/10/01 08:53:32;;;;;;;11.65;3.78;;;;;;;14.48;100.00;99966.00;5067125;28;20052;-73
2022/10/01 08:56:01;;;;;;;10.35;5.03;;;;;;;14.65;100.00;99959.88;5069561;28;20059;-74
2022/10/01 08:58:33;;;;;;;7.28;3.58;;;;;;;14.65;100.00;99968.25;5078552;28;20056;-72
2022/10/01 09:01:00;;;;;;;11.43;4.57;;;;;;;14.72;100.00;99967.28;5063596;28;20059;-73
2022/10/01 09:03:30;;;;;;;7.65;3.95;;;;;;;14.84;100.00;99978.41;5073180;28;20476;-71
2022/10/01 09:06:21;;;;;;;11.32;4.57;;;;;;;14.90;100.00;99982.22;5068056;28;20055;-72
2022/10/01 09:09:02;;;;;;;6.25;3.17;;;;;;;14.92;100.00;99984.56;5062687;28;20067;-73
2022/10/01 09:11:51;;;;;;;18.02;8.20;;;;;;;14.99;100.00;99979.53;5068946;28;20082;-73
2022/10/01 09:14:33;;;;;;;10.55;4.65;;;;;;;14.98;100.00;99986.34;5073469;28;20060;-71
2022/10/01 09:17:28;;;;;;;8.80;3.55;;;;;;;14.93;100.00;99986.91;5079629;28;20420;-72
2022/10/01 09:20:05;;;;;;;15.82;5.40;;;;;;;15.05;100.00;99997.28;5069716;28;20043;-71
2022/10/01 09:22:54;;;;;;;8.43;3.55;;;;;;;15.08;100.00;99988.03;5075546;28;20052;-73
2022/10/01 09:25:23;;;;;;;18.15;7.07;;;;;;;15.21;100.00;99991.59;5064349;28;20102;-74
2022/10/01 09:27:55;;;;;;;17.08;5.22;;;;;;;15.16;100.00;100003.28;5078613;28;20746;-72
2022/10/01 09:30:24;;;;;;;6.93;2.55;;;;;;;15.17;100.00;99988.16;5070551;28;20045;-74
2022/10/01 09:32:52;;;;;;;7.75;3.38;;;;;;;15.26;100.00;99993.81;5064686;28;20500;-72
2022/10/01 09:35:32;;;;;;;6.78;3.60;;;;;;;15.25;100.00;99999.84;5068686;28;20513;-71
2022/10/01 09:38:24;;;;;;;15.30;5.43;;;;;;;15.26;100.00;100004.97;5049527;28;20048;-75
2022/10/01 09:40:56;;;;;;;8.57;2.92;;;;;;;15.26;100.00;100001.41;5050155;28;20497;-75
2022/10/01 09:43:27;;;;;;;4.88;2.50;;;;;;;15.24;100.00;100010.22;5051343;28;20057;-72
2022/10/01 09:45:54;;;;;;;13.07;4.40;;;;;;;15.21;100.00;100013.91;5054052;28;20063;-75
2022/10/01 09:48:30;;;;;;;8.15;3.22;;;;;;;15.34;100.00;100014.69;5054853;28;20059;-74
2022/10/01 09:51:05;;;;;;;7.90;4.07;;;;;;;15.48;100.00;100018.28;5056013;28;20052;-73
2022/10/01 09:53:37;;;;;;;14.38;7.35;;;;;;;15.59;100.00;100018.72;5050695;28;20107;-74
2022/10/01 09:56:14;;;;;;;14.50;6.13;;;;;;;15.49;100.00;100020.59;5055234;28;20044;-74
2022/10/01 09:58:49;;;;;;;14.02;6.40;;;;;;;15.50;100.00;100020.16;5056162;28;20572;-74
2022/10/01 10:01:26;;;;;;;6.88;2.58;;;;;;;15.43;100.00;100027.97;5049972;28;20055;-74
2022/10/01 10:03:54;;;;;;;7.32;2.97;;;;;;;15.35;100.00;100026.59;5050533;28;20614;-75
2022/10/01 10:06:27;;;;;;;2.95;2.03;;;;;;;15.37;100.00;100024.19;5050461;28;20753;-74
2022/10/01 10:08:55;;;;;;;12.65;4.53;;;;;;;15.48;100.00;100030.19;5054396;28;20048;-74
2022/10/01 10:11:25;;;;;;;2.92;1.73;;;;;;;15.45;100.00;100037.44;5050071;28;20049;-74
2022/10/01 10:13:54;;;;;;;14.35;4.78;;;;;;;15.64;100.00;100023.72;5054810;28;20059;-74
2022/10/01 10:16:31;;;;;;;6.82;3.13;;;;;;;15.49;100.00;100026.97;5057480;28;20047;-74
2022/10/01 10:19:08;;;;;;;14.88;7.43;;;;;;;15.68;100.00;100027.94;5049470;28;20783;-74
2022/10/01 10:21:35;;;;;;;3.53;1.85;;;;;;;15.68;100.00;100027.16;5054970;28;20814;-73
2022/10/01 10:24:05;;;;;;;3.35;1.80;;;;;;;15.73;100.00;100032.97;5058002;28;20064;-73
2022/10/01 10:26:34;;;;;;;13.73;5.78;;;;;;;15.87;100.00;100031.72;5058962;28;20670;-74
2022/10/01 10:29:02;;;;;;;5.47;2.42;;;;;;;15.99;100.00;100042.09;5054073;28;20051;-72
2022/10/01 10:31:37;;;;;;;16.25;7.05;;;;;;;16.25;100.00;100038.75;5047877;28;20059;-74
2022/10/01 10:34:05;;;;;;;5.00;2.83;;;;;;;16.28;100.00;100039.88;5056614;28;20079;-74
2022/10/01 10:36:35;;;;;;;7.63;3.42;;;;;;;16.33;100.00;100037.28;5053356;28;20718;-73
2022/10/01 10:39:05;;;;;;;2.97;1.33;;;;;;;16.39;100.00;100034.69;5048232;28;20057;-74
2022/10/01 10:41:33;;;;;;;1.77;1.65;;;;;;;16.53;100.00;100048.16;5050998;28;20044;-74
2022/10/01 10:44:03;;;;;;;7.57;2.88;;;;;;;16.80;100.00;100040.78;5049458;28;20134;-73
2022/10/01 10:46:33;;;;;;;1.95;1.33;;;;;;;16.72;100.00;100042.28;5056572;28;20049;-72
2022/10/01 10:49:24;;;;;;;1.27;0.93;;;;;;;16.77;100.00;100046.50;5048516;28;20052;-73
2022/10/01 10:51:55;;;;;;;2.78;1.60;;;;;;;16.77;100.00;100046.50;5052647;28;20059;-73
2022/10/01 10:54:22;;;;;;;2.95;1.27;;;;;;;16.81;100.00;100052.75;5050237;28;20480;-74
2022/10/01 10:56:56;;;;;;;6.28;2.13;;;;;;;16.83;100.00;100053.03;5052770;28;20053;-72
2022/10/01 10:59:23;;;;;;;5.28;1.70;;;;;;;16.95;100.00;100058.59;5055540;28;20049;-75
2022/10/01 11:01:51;;;;;;;5.63;2.45;;;;;;;16.96;100.00;100039.78;5050301;28;20048;-75
2022/10/01 11:04:40;;;;;;;8.02;2.65;;;;;;;17.42;100.00;100047.22;5061922;28;20052;-74
2022/10/01 11:07:09;;;;;;;10.00;3.53;;;;;;;17.39;100.00;100062.09;5056774;28;20048;-76
2022/10/01 11:10:04;;;;;;;5.72;3.13;;;;;;;17.46;100.00;100082.19;5049726;28;20049;-73
2022/10/01 11:12:46;;;;;;;8.80;3.83;;;;;;;17.51;100.00;100078.00;5059215;28;20856;-73
2022/10/01 11:15:42;;;;;;;10.82;4.03;;;;;;;17.71;100.00;100078.41;5055453;28;20044;-73
2022/10/01 11:18:19;;;;;;;3.55;2.33;;;;;;;17.80;100.00;100090.41;5054319;28;20047;-73
2022/10/01 11:21:01;;;;;;;8.65;3.42;;;;;;;17.79;100.00;100085.28;5050001;28;20497;-73
2022/10/01 11:24:15;;;;;;;3.20;1.15;;;;;;;17.45;100.00;100089.00;5054045;28;20059;-72
2022/10/01 11:27:10;;;;;;;3.67;1.33;;;;;;;17.41;100.00;100090.34;5093186;27;20397;-72
2022/10/01 11:29:42;;;;;;;4.13;2.72;;;;;;;17.38;100.00;100086.47;5095007;28;20428;-73
2022/10/01 11:32:21;;;;;;;6.80;3.30;;;;;;;17.21;100.00;100092.75;5079800;28;20040;-75
2022/10/01 11:34:59;;;;;;;6.95;2.05;;;;;;;17.31;100.00;100085.94;5077468;28;20048;-71
2022/10/01 11:37:41;;;;;;;5.38;3.30;;;;;;;17.46;100.00;100082.19;5073911;28;20086;-75
2022/10/01 11:40:32;;;;;;;7.00;3.10;;;;;;;17.86;100.00;100082.19;5076587;28;20056;-71
2022/10/01 11:43:04;;;;;;;7.03;2.70;;;;;;;17.87;100.00;100080.94;5072679;28;22360;-70